createdAt,value
2023-01-25T00:01:47.919Z,14.23
2023-01-25T00:04:15.905Z,16.90
2023-01-25T00:06:43.842Z,18.67
2023-01-25T00:09:11.837Z,15.47
2023-01-25T00:11:39.801Z,17.77
2023-01-25T00:14:10.794Z,17.90
2023-01-25T00:16:39.342Z,17.07
2023-01-25T00:19:08.738Z,18.90
2023-01-25T00:21:37.386Z,14.97
2023-01-25T00:24:05.843Z,15.77
2023-01-25T00:26:34.372Z,17.20
2023-01-25T00:29:03.282Z,17.00
2023-01-25T00:31:46.527Z,12.43
2023-01-25T00:34:46.203Z,14.47
2023-01-25T00:37:20.764Z,14.67
2023-01-25T00:39:48.923Z,14.03
2023-01-25T00:42:19.503Z,15.43
2023-01-25T00:44:47.605Z,13.93
2023-01-25T00:47:17.492Z,14.33
2023-01-25T00:49:46.117Z,14.30
2023-01-25T00:52:14.621Z,14.30
2023-01-25T00:54:42.880Z,12.77
2023-01-25T00:57:11.008Z,13.10
2023-01-25T00:59:38.985Z,13.03
2023-01-25T01:02:06.938Z,12.00
2023-01-25T01:04:36.244Z,11.63
2023-01-25T01:07:04.214Z,13.70
2023-01-25T01:09:32.169Z,14.80
2023-01-25T01:12:00.200Z,14.50
2023-01-25T01:14:28.246Z,12.57
2023-01-25T01:16:58.013Z,14.00
2023-01-25T01:19:26.292Z,10.67
2023-01-25T01:21:55.551Z,14.07
2023-01-25T01:24:23.584Z,13.33
2023-01-25T01:26:51.640Z,13.63
2023-01-25T01:29:19.570Z,11.70
2023-01-25T01:31:47.623Z,15.00
2023-01-25T01:34:15.754Z,12.63
2023-01-25T01:36:43.748Z,13.03
2023-01-25T01:39:13.073Z,13.70
2023-01-25T01:41:41.059Z,14.10
2023-01-25T01:44:16.731Z,14.67
2023-01-25T01:46:50.520Z,13.83
2023-01-25T01:49:22.293Z,14.03
2023-01-25T01:51:53.734Z,17.30
2023-01-25T01:54:28.329Z,14.63
2023-01-25T01:56:59.910Z,14.70
2023-01-25T01:59:32.107Z,15.90
2023-01-25T02:02:00.048Z,13.53
2023-01-25T02:04:29.515Z,14.90
2023-01-25T02:07:01.113Z,13.87
2023-01-25T02:09:33.203Z,14.40
2023-01-25T02:12:01.820Z,16.97
2023-01-25T02:14:30.699Z,15.77
2023-01-25T02:16:59.139Z,14.90
2023-01-25T02:19:39.303Z,16.70
2023-01-25T02:22:13.457Z,20.37
2023-01-25T02:24:49.706Z,15.23
2023-01-25T02:27:19.935Z,16.07
2023-01-25T02:29:48.710Z,16.73
2023-01-25T02:32:16.697Z,14.23
2023-01-25T02:34:44.672Z,15.10
2023-01-25T02:37:15.724Z,16.83
2023-01-25T02:39:44.132Z,19.07
2023-01-25T02:42:12.402Z,18.57
2023-01-25T02:44:43.309Z,17.33
2023-01-25T02:47:11.351Z,15.77
2023-01-25T02:49:39.610Z,17.87
2023-01-25T02:52:07.562Z,16.33
2023-01-25T02:54:35.630Z,16.13
2023-01-25T02:57:03.599Z,20.53
2023-01-25T02:59:31.554Z,17.93
2023-01-25T03:02:00.875Z,19.10
2023-01-25T03:04:28.802Z,16.63
2023-01-25T03:06:56.721Z,17.23
2023-01-25T03:09:24.759Z,16.13
2023-01-25T03:11:52.684Z,17.93
2023-01-25T03:14:20.606Z,18.00
2023-01-25T03:16:48.583Z,17.83
2023-01-25T03:19:18.132Z,16.17
2023-01-25T03:21:46.757Z,20.00
2023-01-25T03:24:14.721Z,15.70
2023-01-25T03:26:57.733Z,20.20
2023-01-25T03:29:25.815Z,14.03
2023-01-25T03:31:53.816Z,15.17
2023-01-25T03:34:23.358Z,16.67
2023-01-25T03:36:51.301Z,14.13
2023-01-25T03:39:19.351Z,14.90
2023-01-25T03:41:47.264Z,18.10
2023-01-25T03:44:15.471Z,15.93
2023-01-25T03:46:43.767Z,15.60
2023-01-25T03:49:12.007Z,15.07
2023-01-25T03:51:41.521Z,14.13
2023-01-25T03:54:10.378Z,15.83
2023-01-25T03:56:38.787Z,15.40
2023-01-25T03:59:07.241Z,15.33
2023-01-25T04:01:35.186Z,17.37
2023-01-25T04:04:03.211Z,15.57
2023-01-25T04:06:31.224Z,19.67
2023-01-25T04:09:00.506Z,13.67
2023-01-25T04:11:28.505Z,20.80
2023-01-25T04:13:56.704Z,18.67
2023-01-25T04:16:24.735Z,17.00
2023-01-25T04:18:52.729Z,16.33
2023-01-25T04:21:21.110Z,17.63
2023-01-25T04:23:49.088Z,17.37
2023-01-25T04:26:18.386Z,18.33
2023-01-25T04:28:46.319Z,17.30
2023-01-25T04:31:14.338Z,15.07
2023-01-25T04:33:42.330Z,15.67
2023-01-25T04:36:10.529Z,17.27
2023-01-25T04:38:38.504Z,17.33
2023-01-25T04:41:06.960Z,17.37
2023-01-25T04:43:36.371Z,17.07
2023-01-25T04:46:04.686Z,16.80
2023-01-25T04:48:33.630Z,16.03
2023-01-25T04:51:01.738Z,16.13
2023-01-25T04:53:29.657Z,14.80
2023-01-25T04:55:57.598Z,15.00
2023-01-25T04:58:25.521Z,15.63
2023-01-25T05:00:55.116Z,13.47
2023-01-25T05:03:23.082Z,14.33
2023-01-25T05:05:51.008Z,16.40
2023-01-25T05:08:18.957Z,13.90
2023-01-25T05:10:47.080Z,15.13
2023-01-25T05:13:15.026Z,13.90
2023-01-25T05:15:42.980Z,16.03
2023-01-25T05:18:12.205Z,13.57
2023-01-25T05:20:40.384Z,13.67
2023-01-25T05:23:08.323Z,11.20
2023-01-25T05:25:53.849Z,12.67
2023-01-25T05:28:21.772Z,13.80
2023-01-25T05:30:49.936Z,14.20
2023-01-25T05:33:19.290Z,15.70
2023-01-25T05:35:47.483Z,14.23
2023-01-25T05:38:15.456Z,17.20
2023-01-25T05:40:43.415Z,15.00
2023-01-25T05:43:11.329Z,18.17
2023-01-25T05:45:40.313Z,15.27
2023-01-25T05:48:08.941Z,15.77
2023-01-25T05:50:38.276Z,16.53
2023-01-25T05:53:06.273Z,13.13
2023-01-25T05:55:36.870Z,16.63
2023-01-25T05:58:04.828Z,14.97
2023-01-25T06:00:33.030Z,14.10
2023-01-25T06:03:02.376Z,15.27
2023-01-25T06:05:30.557Z,18.03
2023-01-25T06:08:01.007Z,18.80
2023-01-25T06:10:28.947Z,18.33
2023-01-25T06:13:00.715Z,13.93
2023-01-25T06:15:28.710Z,15.27
2023-01-25T06:17:57.532Z,19.50
2023-01-25T06:20:25.518Z,13.97
2023-01-25T06:22:53.887Z,13.63
2023-01-25T06:25:23.260Z,19.23
2023-01-25T06:27:51.192Z,16.00
2023-01-25T06:30:19.451Z,16.30
2023-01-25T06:32:47.471Z,15.73
2023-01-25T06:35:15.529Z,17.50
2023-01-25T06:37:43.512Z,13.60
2023-01-25T06:40:12.620Z,14.77
2023-01-25T06:42:41.883Z,13.10
2023-01-25T06:45:12.014Z,16.47
2023-01-25T06:47:40.286Z,13.70
2023-01-25T06:50:09.435Z,17.10
2023-01-25T06:52:37.815Z,16.30
2023-01-25T06:55:07.895Z,20.93
2023-01-25T06:57:36.055Z,13.17
2023-01-25T07:00:06.547Z,14.70
2023-01-25T07:02:34.511Z,11.23
2023-01-25T07:05:02.786Z,12.77
2023-01-25T07:07:31.003Z,9.77
2023-01-25T07:10:00.475Z,27.23
2023-01-25T07:12:30.027Z,23.80
2023-01-25T07:14:57.961Z,17.40
2023-01-25T07:17:27.250Z,14.63
2023-01-25T07:19:55.164Z,14.43
2023-01-25T07:22:23.194Z,11.10
2023-01-25T07:24:54.055Z,8.33
2023-01-25T07:27:22.212Z,17.20
2023-01-25T07:29:50.152Z,9.97
2023-01-25T07:32:18.081Z,9.63
2023-01-25T07:34:47.344Z,9.97
2023-01-25T07:37:15.272Z,12.87
2023-01-25T07:39:48.235Z,10.80
2023-01-25T07:42:16.525Z,13.07
2023-01-25T07:44:44.441Z,12.77
2023-01-25T07:47:12.394Z,12.00
2023-01-25T07:49:40.337Z,11.30
2023-01-25T07:52:09.629Z,10.03
2023-01-25T07:54:37.565Z,10.97
2023-01-25T07:57:05.526Z,12.97
2023-01-25T07:59:33.710Z,9.47
2023-01-25T08:02:01.701Z,10.10
2023-01-25T08:04:29.874Z,10.27
2023-01-25T08:06:57.917Z,9.30
2023-01-25T08:09:28.344Z,10.67
2023-01-25T08:11:56.414Z,13.73
2023-01-25T08:14:24.750Z,10.73
2023-01-25T08:16:53.095Z,11.67
2023-01-25T08:19:22.009Z,10.57
2023-01-25T08:21:50.055Z,13.70
2023-01-25T08:24:19.168Z,11.57
2023-01-25T08:26:49.987Z,13.63
2023-01-25T08:29:18.177Z,12.47
2023-01-25T08:31:46.129Z,17.27
2023-01-25T08:34:14.995Z,19.23
2023-01-25T08:36:42.957Z,17.70
2023-01-25T08:39:13.098Z,22.43
2023-01-25T08:41:42.240Z,16.83
2023-01-25T08:44:11.830Z,20.37
2023-01-25T08:46:39.821Z,18.50
2023-01-25T08:49:09.193Z,25.57
2023-01-25T08:51:37.187Z,18.40
2023-01-25T08:54:05.818Z,22.13
2023-01-25T08:56:33.927Z,15.97
2023-01-25T08:59:01.894Z,16.43
2023-01-25T09:01:31.172Z,12.27
2023-01-25T09:03:59.324Z,15.63
2023-01-25T09:06:27.398Z,15.97
2023-01-25T09:08:55.313Z,14.57
2023-01-25T09:11:24.327Z,16.00
2023-01-25T09:13:52.421Z,16.13
2023-01-25T09:16:28.077Z,16.87
2023-01-25T09:18:59.031Z,20.50
2023-01-25T09:21:27.374Z,17.97
2023-01-25T09:24:11.274Z,14.93
2023-01-25T09:26:42.978Z,12.10
2023-01-25T09:29:13.161Z,15.20
2023-01-25T09:31:43.683Z,14.90
2023-01-25T09:34:14.830Z,15.77
2023-01-25T09:36:42.784Z,16.10
2023-01-25T09:39:13.057Z,15.80
2023-01-25T09:42:14.595Z,17.13
2023-01-25T09:45:07.099Z,12.83
2023-01-25T09:47:42.079Z,19.63
2023-01-25T09:50:25.041Z,14.20
2023-01-25T09:53:17.528Z,11.07
2023-01-25T09:55:50.856Z,17.63
2023-01-25T09:58:22.321Z,17.03
2023-01-25T10:00:54.791Z,13.83
2023-01-25T10:03:27.025Z,16.77
2023-01-25T10:06:01.020Z,15.43
2023-01-25T10:08:33.079Z,14.57
2023-01-25T10:11:07.801Z,14.07
2023-01-25T10:13:35.755Z,13.07
2023-01-25T10:16:14.586Z,15.07
2023-01-25T10:18:56.661Z,14.43
2023-01-25T10:21:31.356Z,23.83
2023-01-25T10:24:21.188Z,18.53
2023-01-25T10:26:56.728Z,17.30
2023-01-25T10:29:29.004Z,21.17
2023-01-25T10:32:03.335Z,16.70
2023-01-25T10:34:44.039Z,14.70
2023-01-25T10:37:26.723Z,18.47
2023-01-25T10:40:00.246Z,14.60
2023-01-25T10:42:30.681Z,15.93
2023-01-25T10:44:58.620Z,22.63
2023-01-25T10:47:29.969Z,16.03
2023-01-25T10:49:59.157Z,13.13
2023-01-25T10:52:30.253Z,14.60
2023-01-25T10:55:16.090Z,15.40
2023-01-25T10:57:45.305Z,15.17
2023-01-25T11:00:29.949Z,16.67
2023-01-25T11:02:58.481Z,18.37
2023-01-25T11:05:29.067Z,18.33
2023-01-25T11:07:58.618Z,17.53
2023-01-25T11:10:32.526Z,15.40
2023-01-25T11:13:22.990Z,16.23
2023-01-25T11:15:52.968Z,16.43
2023-01-25T11:18:24.364Z,15.77
2023-01-25T11:21:07.359Z,14.73
2023-01-25T11:23:36.746Z,14.00
2023-01-25T11:26:19.099Z,15.50
2023-01-25T11:28:49.533Z,17.67
2023-01-25T11:31:22.352Z,20.00
2023-01-25T11:33:50.527Z,16.90
2023-01-25T11:36:25.782Z,17.93
2023-01-25T11:39:18.724Z,16.93
2023-01-25T11:41:56.767Z,14.53
2023-01-25T11:44:57.764Z,16.80
2023-01-25T11:47:40.780Z,16.10
2023-01-25T11:50:16.033Z,22.87
2023-01-25T11:53:07.766Z,17.73
2023-01-25T11:55:44.742Z,12.90
2023-01-25T11:58:32.333Z,17.87
2023-01-25T12:01:11.751Z,17.07
2023-01-25T12:04:06.876Z,15.83
2023-01-25T12:06:45.959Z,20.23
2023-01-25T12:09:26.693Z,16.83
2023-01-25T12:12:08.715Z,17.53
2023-01-25T12:14:50.356Z,19.10
2023-01-25T12:17:33.496Z,19.20
2023-01-25T12:20:32.060Z,17.50
2023-01-25T12:23:16.808Z,20.03
2023-01-25T12:25:55.544Z,16.33
2023-01-25T12:28:30.296Z,16.83
2023-01-25T12:31:03.822Z,19.23
2023-01-25T12:33:37.319Z,19.93
2023-01-25T12:36:12.621Z,19.67
2023-01-25T12:38:45.703Z,19.80
2023-01-25T12:41:24.264Z,19.03
2023-01-25T12:43:58.441Z,20.80
2023-01-25T12:46:31.031Z,19.73
2023-01-25T12:49:04.295Z,21.97
2023-01-25T12:51:38.106Z,18.40
2023-01-25T12:54:15.564Z,20.03
2023-01-25T12:56:48.080Z,19.80
2023-01-25T12:59:25.096Z,20.57
2023-01-25T13:01:56.921Z,20.43
2023-01-25T13:04:41.340Z,23.47
2023-01-25T13:07:17.175Z,22.00
2023-01-25T13:09:54.345Z,23.33
2023-01-25T13:12:22.301Z,17.77
2023-01-25T13:14:51.687Z,18.50
2023-01-25T13:17:30.593Z,20.73
2023-01-25T13:19:58.662Z,26.57
2023-01-25T13:22:58.652Z,24.77
2023-01-25T13:25:27.710Z,22.37
2023-01-25T13:28:42.258Z,23.33
2023-01-25T13:31:11.927Z,19.53
2023-01-25T13:33:39.931Z,22.93
2023-01-25T13:36:38.677Z,23.00
2023-01-25T13:39:40.228Z,20.97
2023-01-25T13:42:22.725Z,25.93
2023-01-25T13:44:52.226Z,19.70
2023-01-25T13:47:24.258Z,23.83
2023-01-25T13:49:57.845Z,30.33
2023-01-25T13:52:27.299Z,21.47
2023-01-25T13:54:57.605Z,19.40
2023-01-25T13:57:27.871Z,23.53
2023-01-25T14:00:11.253Z,20.70
2023-01-25T14:02:43.051Z,18.83
2023-01-25T14:05:20.517Z,19.70
2023-01-25T14:07:50.648Z,22.23
2023-01-25T14:10:23.640Z,19.40
2023-01-25T14:12:53.181Z,22.00
2023-01-25T14:15:24.378Z,22.70
2023-01-25T14:18:13.129Z,20.33
2023-01-25T14:20:41.596Z,22.40
2023-01-25T14:23:22.914Z,19.50
2023-01-25T14:25:51.574Z,19.43
2023-01-25T14:28:20.159Z,21.37
2023-01-25T14:30:54.663Z,19.90
2023-01-25T14:33:27.311Z,19.70
2023-01-25T14:36:01.739Z,17.67
2023-01-25T14:38:36.331Z,14.60
2023-01-25T14:41:12.121Z,18.30
2023-01-25T14:43:43.156Z,21.53
2023-01-25T14:46:25.745Z,19.87
2023-01-25T14:49:15.986Z,23.37
2023-01-25T14:51:46.218Z,21.83
2023-01-25T14:54:18.865Z,17.83
2023-01-25T14:56:48.950Z,20.70
2023-01-25T14:59:28.244Z,19.97
2023-01-25T15:01:59.171Z,20.70
2023-01-25T15:04:28.835Z,18.57
2023-01-25T15:07:01.097Z,22.10
2023-01-25T15:09:36.875Z,22.07
2023-01-25T15:12:06.799Z,22.93
2023-01-25T15:14:34.768Z,18.27
2023-01-25T15:17:02.704Z,24.57
2023-01-25T15:19:34.636Z,19.97
2023-01-25T15:22:03.002Z,19.57
2023-01-25T15:24:30.936Z,25.30
2023-01-25T15:26:58.945Z,22.53
2023-01-25T15:29:27.669Z,20.47
2023-01-25T15:31:57.022Z,26.37
2023-01-25T15:34:32.453Z,22.33
2023-01-25T15:37:01.773Z,31.40
2023-01-25T15:39:30.011Z,26.23
2023-01-25T15:41:57.907Z,25.80
2023-01-25T15:44:25.935Z,26.90
2023-01-25T15:46:54.502Z,29.13
2023-01-25T15:49:26.752Z,31.37
2023-01-25T15:51:54.957Z,28.73
2023-01-25T15:54:24.556Z,29.43
2023-01-25T15:56:56.057Z,25.00
2023-01-25T15:59:24.241Z,26.37
2023-01-25T16:01:52.458Z,29.00
2023-01-25T16:04:20.370Z,23.93
2023-01-25T16:06:50.536Z,27.43
2023-01-25T16:09:21.686Z,27.40
2023-01-25T16:11:53.878Z,30.07
2023-01-25T16:14:23.606Z,31.50
2023-01-25T16:16:53.180Z,28.67
2023-01-25T16:19:22.998Z,27.50
2023-01-25T16:21:51.633Z,28.90
2023-01-25T16:24:19.994Z,25.70
2023-01-25T16:26:52.441Z,34.43
2023-01-25T16:29:20.588Z,30.53
2023-01-25T16:31:48.637Z,33.20
2023-01-25T16:34:16.594Z,29.53
2023-01-25T16:36:49.979Z,32.87
2023-01-25T16:39:20.506Z,22.57
2023-01-25T16:41:49.327Z,27.50
2023-01-25T16:44:18.993Z,30.67
2023-01-25T16:46:47.515Z,36.50
2023-01-25T16:49:18.442Z,31.60
2023-01-25T16:51:46.461Z,27.73
2023-01-25T16:54:14.407Z,33.30
2023-01-25T16:56:42.431Z,30.47
2023-01-25T16:59:12.157Z,32.57
2023-01-25T17:01:42.019Z,31.20
2023-01-25T17:04:10.502Z,32.53
2023-01-25T17:06:40.784Z,33.90
2023-01-25T17:09:22.134Z,32.37
2023-01-25T17:11:51.265Z,33.03
2023-01-25T17:14:20.520Z,29.03
2023-01-25T17:16:52.239Z,30.10
2023-01-25T17:19:21.319Z,34.73
2023-01-25T17:21:49.331Z,32.97
2023-01-25T17:24:19.609Z,36.63
2023-01-25T17:26:47.902Z,38.10
2023-01-25T17:29:15.850Z,37.93
2023-01-25T17:31:44.703Z,47.83
2023-01-25T17:34:16.418Z,37.90
2023-01-25T17:36:44.726Z,40.77
2023-01-25T17:39:15.352Z,33.17
2023-01-25T17:41:43.331Z,36.90
2023-01-25T17:44:11.613Z,34.80
2023-01-25T17:46:39.575Z,36.80
2023-01-25T17:49:09.324Z,34.60
2023-01-25T17:51:38.785Z,39.63
2023-01-25T17:54:07.341Z,43.13
2023-01-25T17:56:37.353Z,33.13
2023-01-25T17:59:09.022Z,36.17
2023-01-25T18:01:37.599Z,39.63
2023-01-25T18:04:08.864Z,41.63
2023-01-25T18:06:38.189Z,48.17
2023-01-25T18:09:07.217Z,41.23
2023-01-25T18:11:36.886Z,37.47
2023-01-25T18:14:09.004Z,42.97
2023-01-25T18:16:39.808Z,47.20
2023-01-25T18:19:08.462Z,42.83
2023-01-25T18:21:38.053Z,42.33
2023-01-25T18:24:08.600Z,37.00
2023-01-25T18:26:37.970Z,37.00
2023-01-25T18:29:35.031Z,39.93
2023-01-25T18:32:03.146Z,40.87
2023-01-25T18:34:31.126Z,37.77
2023-01-25T18:37:00.403Z,38.17
2023-01-25T18:39:28.489Z,36.50
2023-01-25T18:41:56.449Z,38.33
2023-01-25T18:44:24.575Z,40.20
2023-01-25T18:46:52.512Z,39.10
2023-01-25T18:49:20.421Z,36.40
2023-01-25T18:52:05.199Z,43.70
2023-01-25T18:54:37.725Z,43.27
2023-01-25T18:57:06.862Z,39.70
2023-01-25T18:59:34.855Z,42.40
2023-01-25T19:02:02.866Z,41.60
2023-01-25T19:04:30.910Z,37.43
2023-01-25T19:07:01.436Z,44.43
2023-01-25T19:09:30.191Z,41.47
2023-01-25T19:11:59.681Z,36.50
2023-01-25T19:14:27.822Z,36.57
2023-01-25T19:16:55.800Z,42.50
2023-01-25T19:19:24.947Z,39.43
2023-01-25T19:21:52.891Z,36.83
2023-01-25T19:24:20.904Z,41.97
2023-01-25T19:26:49.036Z,35.50
2023-01-25T19:29:18.479Z,40.67
2023-01-25T19:31:46.422Z,41.73
2023-01-25T19:34:14.405Z,39.77
2023-01-25T19:36:45.767Z,39.23
2023-01-25T19:39:14.472Z,39.97
2023-01-25T19:41:42.594Z,39.97
2023-01-25T19:44:12.737Z,42.50
2023-01-25T19:46:42.200Z,43.63
2023-01-25T19:49:13.170Z,54.33
2023-01-25T19:51:44.506Z,50.07
2023-01-25T19:54:15.809Z,44.67
2023-01-25T19:56:46.001Z,41.10
2023-01-25T19:59:15.676Z,44.10
2023-01-25T20:01:46.260Z,40.93
2023-01-25T20:04:16.604Z,41.00
2023-01-25T20:06:44.970Z,44.37
2023-01-25T20:09:14.140Z,46.83
2023-01-25T20:11:42.820Z,47.27
2023-01-25T20:14:12.817Z,40.80
2023-01-25T20:16:40.934Z,43.70
2023-01-25T20:19:12.334Z,38.60
2023-01-25T20:21:40.905Z,41.27
2023-01-25T20:24:10.493Z,39.70
2023-01-25T20:26:42.663Z,40.80
2023-01-25T20:29:12.224Z,43.83
2023-01-25T20:31:41.572Z,44.10
2023-01-25T20:34:14.396Z,51.13
2023-01-25T20:36:43.179Z,40.53
2023-01-25T20:39:13.637Z,44.90
2023-01-25T20:41:41.593Z,44.43
2023-01-25T20:44:11.346Z,38.77
2023-01-25T20:46:40.726Z,44.17
2023-01-25T20:49:12.176Z,40.43
2023-01-25T20:51:40.251Z,38.00
2023-01-25T20:54:08.228Z,45.33
2023-01-25T20:56:36.463Z,46.20
2023-01-25T20:59:04.900Z,34.83
2023-01-25T21:01:36.945Z,44.87
2023-01-25T21:04:07.893Z,37.37
2023-01-25T21:06:38.601Z,43.90
2023-01-25T21:09:06.892Z,50.33
2023-01-25T21:11:34.912Z,48.73
2023-01-25T21:14:02.986Z,42.70
2023-01-25T21:16:31.238Z,56.43
2023-01-25T21:19:01.378Z,50.93
2023-01-25T21:21:31.190Z,48.07
2023-01-25T21:24:04.784Z,47.23
2023-01-25T21:26:34.579Z,44.80
2023-01-25T21:29:03.263Z,45.27
2023-01-25T21:31:33.462Z,47.87
2023-01-25T21:34:02.041Z,47.13
2023-01-25T21:36:29.989Z,61.40
2023-01-25T21:38:58.127Z,52.37
2023-01-25T21:41:29.443Z,48.60
2023-01-25T21:44:16.527Z,50.77
2023-01-25T21:46:49.255Z,44.37
2023-01-25T21:49:45.794Z,48.30
2023-01-25T21:52:13.735Z,42.50
2023-01-25T21:54:41.654Z,47.07
2023-01-25T21:57:11.711Z,46.17
2023-01-25T21:59:40.849Z,39.87
2023-01-25T22:02:11.786Z,52.93
2023-01-25T22:04:39.806Z,40.27
2023-01-25T22:07:09.176Z,40.60
2023-01-25T22:09:37.165Z,45.20
2023-01-25T22:12:05.356Z,39.40
2023-01-25T22:14:34.844Z,37.37
2023-01-25T22:17:03.266Z,44.23
2023-01-25T22:19:31.206Z,39.13
2023-01-25T22:21:59.240Z,42.43
2023-01-25T22:24:27.295Z,44.53
2023-01-25T22:27:04.519Z,42.47
2023-01-25T22:29:35.112Z,37.80
2023-01-25T22:32:03.169Z,31.80
2023-01-25T22:34:31.284Z,38.43
2023-01-25T22:36:59.251Z,35.83
2023-01-25T22:39:27.230Z,33.60
2023-01-25T22:41:55.846Z,37.80
2023-01-25T22:44:23.753Z,36.30
2023-01-25T22:46:53.834Z,35.60
2023-01-25T22:49:21.904Z,34.40
2023-01-25T22:51:49.978Z,31.30
2023-01-25T22:54:17.964Z,36.93
2023-01-25T22:56:46.054Z,35.40
2023-01-25T22:59:18.755Z,38.03
2023-01-25T23:01:47.081Z,39.20
2023-01-25T23:04:16.441Z,43.00
2023-01-25T23:06:44.614Z,34.17
2023-01-25T23:09:12.710Z,31.87
2023-01-25T23:11:40.614Z,40.33
2023-01-25T23:14:27.653Z,39.13
2023-01-25T23:17:16.783Z,39.00
2023-01-25T23:19:45.121Z,36.17
2023-01-25T23:22:13.830Z,35.30
2023-01-25T23:24:41.847Z,33.67
2023-01-25T23:27:09.748Z,32.40
2023-01-25T23:29:38.188Z,32.60
2023-01-25T23:32:06.589Z,32.83
2023-01-25T23:34:39.417Z,33.40
2023-01-25T23:37:08.865Z,32.93
2023-01-25T23:39:36.850Z,34.67
2023-01-25T23:42:04.846Z,32.40
2023-01-25T23:44:32.844Z,33.30
2023-01-25T23:47:01.689Z,35.20
2023-01-25T23:49:29.659Z,33.93
2023-01-25T23:51:57.636Z,31.50
2023-01-25T23:54:27.095Z,31.73
2023-01-25T23:56:55.097Z,33.57
2023-01-25T23:59:23.211Z,34.70
